createdAt,value
2022-09-22T00:01:19.804Z,9.52
2022-09-22T00:03:50.480Z,9.56
2022-09-22T00:06:18.952Z,9.59
2022-09-22T00:08:49.136Z,9.30
2022-09-22T00:11:27.239Z,9.26
2022-09-22T00:13:59.728Z,9.11
2022-09-22T00:16:31.003Z,8.79
2022-09-22T00:18:58.710Z,8.75
2022-09-22T00:21:30.783Z,8.71
2022-09-22T00:24:00.512Z,8.96
2022-09-22T00:26:27.891Z,8.78
2022-09-22T00:28:54.963Z,8.90
2022-09-22T00:31:26.251Z,8.68
2022-09-22T00:33:54.372Z,8.80
2022-09-22T00:36:25.568Z,8.94
2022-09-22T00:38:54.247Z,8.84
2022-09-22T00:41:30.911Z,8.52
2022-09-22T00:44:29.000Z,8.27
2022-09-22T00:47:02.128Z,8.56
2022-09-22T00:50:02.655Z,8.68
2022-09-22T00:52:52.018Z,8.74
2022-09-22T00:55:28.770Z,8.46
2022-09-22T00:57:57.111Z,8.92
2022-09-22T01:00:24.173Z,8.87
2022-09-22T01:02:57.043Z,8.85
2022-09-22T01:05:25.996Z,8.84
2022-09-22T01:07:54.379Z,8.78
2022-09-22T01:10:23.930Z,8.76
2022-09-22T01:13:12.723Z,8.82
2022-09-22T01:16:04.559Z,8.94
2022-09-22T01:19:12.358Z,9.02
2022-09-22T01:22:10.550Z,9.02
2022-09-22T01:24:37.631Z,8.94
2022-09-22T01:27:22.498Z,8.86
2022-09-22T01:30:06.517Z,8.79
2022-09-22T01:32:48.539Z,8.90
2022-09-22T01:36:08.959Z,9.06
2022-09-22T01:38:55.655Z,9.04
2022-09-22T01:41:48.129Z,9.02
2022-09-22T01:44:31.884Z,9.11
2022-09-22T01:47:07.334Z,8.85
2022-09-22T01:49:39.865Z,8.78
2022-09-22T01:52:13.115Z,8.94
2022-09-22T01:54:47.247Z,8.79
2022-09-22T01:57:20.472Z,8.78
2022-09-22T01:59:54.890Z,8.79
2022-09-22T02:02:29.288Z,8.55
2022-09-22T02:05:01.043Z,8.41
2022-09-22T02:07:33.913Z,8.52
2022-09-22T02:10:05.570Z,8.51
2022-09-22T02:12:32.661Z,8.76
2022-09-22T02:14:59.735Z,8.70
2022-09-22T02:17:29.672Z,8.74
2022-09-22T02:20:00.322Z,8.70
2022-09-22T02:22:27.350Z,8.56
2022-09-22T02:24:54.432Z,8.54
2022-09-22T02:27:26.917Z,8.62
2022-09-22T02:30:01.430Z,8.70
2022-09-22T02:32:30.664Z,8.31
2022-09-22T02:34:57.867Z,8.37
2022-09-22T02:37:39.783Z,8.37
2022-09-22T02:40:43.756Z,8.56
2022-09-22T02:43:24.094Z,8.46
2022-09-22T02:45:57.842Z,8.51
2022-09-22T02:48:30.906Z,8.61
2022-09-22T02:50:58.126Z,8.37
2022-09-22T02:53:25.167Z,8.54
2022-09-22T02:55:52.271Z,8.55
2022-09-22T02:58:19.315Z,8.39
2022-09-22T03:00:46.367Z,8.30
2022-09-22T03:03:13.413Z,8.48
2022-09-22T03:05:40.756Z,8.37
2022-09-22T03:08:07.817Z,8.01
2022-09-22T03:10:34.903Z,8.30
2022-09-22T03:13:15.920Z,7.92
2022-09-22T03:15:47.335Z,7.73
2022-09-22T03:18:14.689Z,7.76
2022-09-22T03:20:41.818Z,7.53
2022-09-22T03:23:09.184Z,7.63
2022-09-22T03:25:36.494Z,8.14
2022-09-22T03:28:03.632Z,8.19
2022-09-22T03:30:31.057Z,7.75
2022-09-22T03:32:58.187Z,7.99
2022-09-22T03:35:25.230Z,7.96
2022-09-22T03:37:52.263Z,7.83
2022-09-22T03:40:19.393Z,7.72
2022-09-22T03:42:46.855Z,7.98
2022-09-22T03:45:14.967Z,7.89
2022-09-22T03:47:42.120Z,7.86
2022-09-22T03:50:10.219Z,8.23
2022-09-22T03:52:37.451Z,8.33
2022-09-22T03:55:04.894Z,7.80
2022-09-22T03:57:31.961Z,7.87
2022-09-22T03:59:59.180Z,7.79
2022-09-22T04:02:26.375Z,7.97
2022-09-22T04:04:53.584Z,7.29
2022-09-22T04:07:20.745Z,7.33
2022-09-22T04:09:47.789Z,7.32
2022-09-22T04:12:14.922Z,7.63
2022-09-22T04:14:41.988Z,7.72
2022-09-22T04:17:09.137Z,7.89
2022-09-22T04:19:36.176Z,7.55
2022-09-22T04:22:03.809Z,7.74
2022-09-22T04:24:31.014Z,7.88
2022-09-22T04:29:45.120Z,7.97
2022-09-22T04:32:12.268Z,7.98
2022-09-22T04:34:39.547Z,7.83
2022-09-22T04:37:06.644Z,7.92
2022-09-22T04:39:33.810Z,7.90
2022-09-22T04:42:00.874Z,7.67
2022-09-22T04:44:27.938Z,7.74
2022-09-22T04:46:57.044Z,7.85
2022-09-22T04:49:24.210Z,7.89
2022-09-22T04:51:51.251Z,7.94
2022-09-22T04:54:18.408Z,7.74
2022-09-22T04:56:45.485Z,7.73
2022-09-22T04:59:12.692Z,7.58
2022-09-22T05:01:39.872Z,7.74
2022-09-22T05:04:07.032Z,7.23
2022-09-22T05:06:34.514Z,7.42
2022-09-22T05:09:03.116Z,7.41
2022-09-22T05:11:31.243Z,7.57
2022-09-22T05:13:58.609Z,7.72
2022-09-22T05:16:26.483Z,7.55
2022-09-22T05:18:53.685Z,7.60
2022-09-22T05:21:21.121Z,7.45
2022-09-22T05:23:48.217Z,7.45
2022-09-22T05:26:15.273Z,7.45
2022-09-22T05:28:42.796Z,7.46
2022-09-22T05:31:09.921Z,7.53
2022-09-22T05:33:37.115Z,7.68
2022-09-22T05:36:04.200Z,7.41
2022-09-22T05:38:31.274Z,7.57
2022-09-22T05:40:58.413Z,7.43
2022-09-22T05:43:25.598Z,7.24
2022-09-22T05:45:52.673Z,7.13
2022-09-22T05:48:19.782Z,6.80
2022-09-22T05:50:46.893Z,6.94
2022-09-22T05:53:14.523Z,7.05
2022-09-22T05:55:41.754Z,7.43
2022-09-22T05:58:12.405Z,7.24
2022-09-22T06:00:40.696Z,7.22
2022-09-22T06:03:07.961Z,7.22
2022-09-22T06:05:38.167Z,7.66
2022-09-22T06:08:06.937Z,7.50
2022-09-22T06:10:36.451Z,7.92
2022-09-22T06:13:04.360Z,7.60
2022-09-22T06:15:33.905Z,7.92
2022-09-22T06:18:02.119Z,8.04
2022-09-22T06:20:29.331Z,7.98
2022-09-22T06:22:56.727Z,7.93
2022-09-22T06:25:23.880Z,8.26
2022-09-22T06:28:05.620Z,8.07
2022-09-22T06:30:34.514Z,7.84
2022-09-22T06:33:02.903Z,8.26
2022-09-22T06:35:39.630Z,8.48
2022-09-22T06:38:08.183Z,8.54
2022-09-22T06:40:38.239Z,8.66
2022-09-22T06:43:11.767Z,8.65
2022-09-22T06:45:39.789Z,8.57
2022-09-22T06:48:10.147Z,8.78
2022-09-22T06:50:38.183Z,8.85
2022-09-22T06:53:07.296Z,8.95
2022-09-22T06:55:35.843Z,9.10
2022-09-22T06:58:03.316Z,9.05
2022-09-22T07:00:33.043Z,8.96
2022-09-22T07:03:03.114Z,9.17
2022-09-22T07:05:30.200Z,9.09
2022-09-22T07:07:57.244Z,9.21
2022-09-22T07:10:24.340Z,9.05
2022-09-22T07:12:51.438Z,8.80
2022-09-22T07:15:18.514Z,9.05
2022-09-22T07:17:45.810Z,9.27
2022-09-22T07:20:12.875Z,8.91
2022-09-22T07:22:40.555Z,9.32
2022-09-22T07:25:08.666Z,9.48
2022-09-22T07:27:35.726Z,9.17
2022-09-22T07:30:03.466Z,9.28
2022-09-22T07:32:35.090Z,9.43
2022-09-22T07:35:03.663Z,9.66
2022-09-22T07:37:33.040Z,9.41
2022-09-22T07:40:02.699Z,9.44
2022-09-22T07:42:29.820Z,9.27
2022-09-22T07:45:15.360Z,9.34
2022-09-22T07:48:04.260Z,9.38
2022-09-22T07:50:31.452Z,9.62
2022-09-22T07:52:58.530Z,9.66
2022-09-22T07:55:25.650Z,9.63
2022-09-22T07:58:01.906Z,9.73
2022-09-22T08:00:33.593Z,9.82
2022-09-22T08:03:01.174Z,9.77
2022-09-22T08:05:29.197Z,9.97
2022-09-22T08:07:58.187Z,10.13
2022-09-22T08:10:26.219Z,10.27
2022-09-22T08:12:57.969Z,10.16
2022-09-22T08:15:27.307Z,10.39
2022-09-22T08:17:58.359Z,10.47
2022-09-22T08:20:28.860Z,10.46
2022-09-22T08:23:02.846Z,10.55
2022-09-22T08:25:30.370Z,10.70
2022-09-22T08:27:57.508Z,10.74
2022-09-22T08:30:24.650Z,11.05
2022-09-22T08:32:52.064Z,11.19
2022-09-22T08:35:19.615Z,11.37
2022-09-22T08:37:50.264Z,11.47
2022-09-22T08:40:23.792Z,11.66
2022-09-22T08:42:54.302Z,11.58
2022-09-22T08:45:32.541Z,11.49
2022-09-22T08:48:25.823Z,11.81
2022-09-22T08:51:16.727Z,11.90
2022-09-22T08:53:48.660Z,12.00
2022-09-22T08:56:29.185Z,12.05
2022-09-22T08:59:09.032Z,12.05
2022-09-22T09:02:01.121Z,12.31
2022-09-22T09:04:58.998Z,12.21
2022-09-22T09:07:29.214Z,12.29
2022-09-22T09:10:18.712Z,12.33
2022-09-22T09:13:03.974Z,12.24
2022-09-22T09:16:04.218Z,12.45
2022-09-22T09:18:33.944Z,12.48
2022-09-22T09:21:09.581Z,12.67
2022-09-22T09:26:36.807Z,12.57
2022-09-22T09:29:07.453Z,12.67
2022-09-22T09:31:41.926Z,12.76
2022-09-22T09:34:16.517Z,12.82
2022-09-22T09:36:49.173Z,12.95
2022-09-22T09:39:32.063Z,12.92
2022-09-22T09:42:02.042Z,13.06
2022-09-22T09:44:39.994Z,13.03
2022-09-22T09:47:27.278Z,12.96
2022-09-22T09:49:54.734Z,13.13
2022-09-22T09:52:26.048Z,13.38
2022-09-22T09:54:54.311Z,13.31
2022-09-22T09:57:27.597Z,13.29
2022-09-22T10:00:33.534Z,13.23
2022-09-22T10:03:03.271Z,13.55
2022-09-22T10:05:32.355Z,13.41
2022-09-22T10:08:13.077Z,13.34
2022-09-22T10:10:41.171Z,13.39
2022-09-22T10:13:08.260Z,13.25
2022-09-22T10:15:40.494Z,13.45
2022-09-22T10:18:29.425Z,13.40
2022-09-22T10:21:10.050Z,13.67
2022-09-22T10:23:37.157Z,13.59
2022-09-22T10:26:19.405Z,13.57
2022-09-22T10:29:18.701Z,13.83
2022-09-22T10:32:02.834Z,13.80
2022-09-22T10:34:32.095Z,14.00
2022-09-22T10:37:00.940Z,13.80
2022-09-22T10:39:51.846Z,14.12
2022-09-22T10:42:27.835Z,13.95
2022-09-22T10:45:00.683Z,13.83
2022-09-22T10:48:07.379Z,13.99
2022-09-22T10:50:45.819Z,13.98
2022-09-22T10:54:20.679Z,14.14
2022-09-22T10:56:53.274Z,14.14
2022-09-22T10:59:38.922Z,14.31
2022-09-22T11:02:40.046Z,14.30
2022-09-22T11:05:19.277Z,14.38
2022-09-22T11:08:23.595Z,14.21
2022-09-22T11:11:39.875Z,14.37
2022-09-22T11:14:19.052Z,14.12
2022-09-22T11:16:46.086Z,14.31
2022-09-22T11:19:37.650Z,14.67
2022-09-22T11:22:36.956Z,14.79
2022-09-22T11:25:06.732Z,14.69
2022-09-22T11:28:04.078Z,14.44
2022-09-22T11:30:40.397Z,14.62
2022-09-22T11:33:36.981Z,14.73
2022-09-22T11:36:32.965Z,15.02
2022-09-22T11:39:33.970Z,15.29
2022-09-22T11:42:26.149Z,15.06
2022-09-22T11:45:21.844Z,15.15
2022-09-22T11:48:05.984Z,15.24
2022-09-22T11:50:39.528Z,15.33
2022-09-22T11:53:26.825Z,15.19
2022-09-22T11:56:14.643Z,15.30
2022-09-22T11:58:44.599Z,15.22
2022-09-22T12:01:17.450Z,15.18
2022-09-22T12:03:53.322Z,15.30
2022-09-22T12:06:26.172Z,15.56
2022-09-22T12:09:07.092Z,15.56
2022-09-22T12:11:37.638Z,15.71
2022-09-22T12:14:06.371Z,15.92
2022-09-22T12:16:58.706Z,16.06
2022-09-22T12:19:56.900Z,16.02
2022-09-22T12:22:31.223Z,16.03
2022-09-22T12:24:58.445Z,15.86
2022-09-22T12:27:27.724Z,15.87
2022-09-22T12:30:09.986Z,15.89
2022-09-22T12:32:42.914Z,16.27
2022-09-22T12:35:39.243Z,16.26
2022-09-22T12:38:06.331Z,15.92
2022-09-22T12:40:37.196Z,16.22
2022-09-22T12:43:05.887Z,16.40
2022-09-22T12:45:37.998Z,16.17
2022-09-22T12:48:17.418Z,16.11
2022-09-22T12:50:45.536Z,16.29
2022-09-22T12:53:21.686Z,16.41
2022-09-22T12:55:50.608Z,16.47
2022-09-22T12:58:20.406Z,16.37
2022-09-22T13:00:52.206Z,16.48
2022-09-22T13:03:47.831Z,16.48
2022-09-22T13:06:23.688Z,16.72
2022-09-22T13:08:53.678Z,16.60
2022-09-22T13:11:59.049Z,16.73
2022-09-22T13:15:17.373Z,16.38
2022-09-22T13:17:47.667Z,16.53
2022-09-22T13:20:22.673Z,16.75
2022-09-22T13:22:51.893Z,16.61
2022-09-22T13:25:23.346Z,16.87
2022-09-22T13:28:09.456Z,16.78
2022-09-22T13:30:38.183Z,16.72
2022-09-22T13:33:05.616Z,16.85
2022-09-22T13:35:37.522Z,16.94
2022-09-22T13:38:05.169Z,17.03
2022-09-22T13:40:34.664Z,17.08
2022-09-22T13:43:08.631Z,16.97
2022-09-22T13:45:39.620Z,17.39
2022-09-22T13:48:11.136Z,17.40
2022-09-22T13:50:46.089Z,17.55
2022-09-22T13:53:18.797Z,17.05
2022-09-22T13:55:51.229Z,17.15
2022-09-22T13:58:34.423Z,17.52
2022-09-22T14:01:17.225Z,21.03
2022-09-22T14:03:45.023Z,29.90
2022-09-22T14:06:15.807Z,31.83
2022-09-22T14:08:44.624Z,32.65
2022-09-22T14:11:16.354Z,34.08
2022-09-22T14:13:55.734Z,32.97
2022-09-22T14:16:26.648Z,34.44
2022-09-22T14:19:05.864Z,34.02
2022-09-22T14:21:40.203Z,34.24
2022-09-22T14:24:07.305Z,34.77
2022-09-22T14:26:37.491Z,37.81
2022-09-22T14:29:27.633Z,38.38
2022-09-22T14:32:19.513Z,37.55
2022-09-22T14:34:52.888Z,39.00
2022-09-22T14:37:31.652Z,39.06
2022-09-22T14:40:02.501Z,35.79
2022-09-22T14:42:31.943Z,34.92
2022-09-22T14:45:07.690Z,35.87
2022-09-22T14:47:40.297Z,37.81
2022-09-22T14:50:18.685Z,34.70
2022-09-22T14:52:53.242Z,38.60
2022-09-22T14:55:42.721Z,37.83
2022-09-22T14:58:27.901Z,39.40
2022-09-22T15:01:15.185Z,39.07
2022-09-22T15:03:46.505Z,36.46
2022-09-22T15:06:14.684Z,36.99
2022-09-22T15:08:47.733Z,37.63
2022-09-22T15:11:16.426Z,35.16
2022-09-22T15:13:45.423Z,36.92
2022-09-22T15:16:35.842Z,37.03
2022-09-22T15:19:04.168Z,36.84
2022-09-22T15:21:45.969Z,38.56
2022-09-22T15:24:15.610Z,38.00
2022-09-22T15:26:44.165Z,38.62
2022-09-22T15:29:12.549Z,35.53
2022-09-22T15:31:40.111Z,38.00
2022-09-22T15:34:09.888Z,35.03
2022-09-22T15:36:45.855Z,35.49
2022-09-22T15:39:21.480Z,36.26
2022-09-22T15:41:49.533Z,36.59
2022-09-22T15:44:16.833Z,32.14
2022-09-22T15:46:45.535Z,35.33
2022-09-22T15:49:23.163Z,37.51
2022-09-22T15:51:50.646Z,38.69
2022-09-22T15:54:20.431Z,38.77
2022-09-22T15:56:50.297Z,35.92
2022-09-22T15:59:22.889Z,36.38
2022-09-22T16:01:51.854Z,35.19
2022-09-22T16:04:19.999Z,37.07
2022-09-22T16:06:54.647Z,36.07
2022-09-22T16:09:21.785Z,34.14
2022-09-22T16:11:49.159Z,34.92
2022-09-22T16:14:16.606Z,35.19
2022-09-22T16:16:43.721Z,34.77
2022-09-22T16:19:10.857Z,35.97
2022-09-22T16:21:41.438Z,34.22
2022-09-22T16:24:11.990Z,34.15
2022-09-22T16:26:40.114Z,34.03
2022-09-22T16:29:08.250Z,32.88
2022-09-22T16:31:37.071Z,32.78
2022-09-22T16:34:05.734Z,31.37
2022-09-22T16:36:34.203Z,30.46
2022-09-22T16:39:01.928Z,29.07
2022-09-22T16:41:32.104Z,25.60
2022-09-22T16:44:01.038Z,23.24
2022-09-22T16:46:33.614Z,23.65
2022-09-22T16:49:09.801Z,23.51
2022-09-22T16:51:39.982Z,23.20
2022-09-22T16:54:14.655Z,22.36
2022-09-22T16:59:10.597Z,20.21
2022-09-22T17:01:38.032Z,20.51
2022-09-22T17:04:06.726Z,19.94
2022-09-22T17:06:35.988Z,20.47
2022-09-22T17:09:03.607Z,20.05
2022-09-22T17:11:36.433Z,19.40
2022-09-22T17:14:12.432Z,20.76
2022-09-22T17:16:44.942Z,21.22
2022-09-22T17:19:18.311Z,20.77
2022-09-22T17:21:51.035Z,20.40
2022-09-22T17:24:19.811Z,20.31
2022-09-22T17:26:49.229Z,20.29
2022-09-22T17:29:17.374Z,19.67
2022-09-22T17:31:48.962Z,19.89
2022-09-22T17:34:17.128Z,19.51
2022-09-22T17:36:44.590Z,18.09
2022-09-22T17:39:11.802Z,18.05
2022-09-22T17:41:46.716Z,17.55
2022-09-22T17:44:16.935Z,17.73
2022-09-22T17:47:02.249Z,17.89
2022-09-22T17:49:47.617Z,17.39
2022-09-22T17:52:28.232Z,16.60
2022-09-22T17:55:06.913Z,17.24
2022-09-22T17:57:38.655Z,17.24
2022-09-22T18:00:09.057Z,17.82
2022-09-22T18:02:39.048Z,17.66
2022-09-22T18:05:08.724Z,16.98
2022-09-22T18:07:36.666Z,17.13
2022-09-22T18:10:05.191Z,17.58
2022-09-22T18:12:34.108Z,17.43
2022-09-22T18:15:03.452Z,17.43
2022-09-22T18:17:31.896Z,17.33
2022-09-22T18:20:00.058Z,17.33
2022-09-22T18:22:29.369Z,17.36
2022-09-22T18:24:56.317Z,17.05
2022-09-22T18:27:27.076Z,17.23
2022-09-22T18:29:58.272Z,17.45
2022-09-22T18:32:29.804Z,16.58
2022-09-22T18:34:56.959Z,16.45
2022-09-22T18:37:25.037Z,16.59
2022-09-22T18:39:52.287Z,16.11
2022-09-22T18:42:22.484Z,15.87
2022-09-22T18:44:50.925Z,16.63
2022-09-22T18:47:19.433Z,16.34
2022-09-22T18:49:48.771Z,15.93
2022-09-22T18:52:22.888Z,15.52
2022-09-22T18:54:53.305Z,16.15
2022-09-22T18:57:22.244Z,16.21
2022-09-22T18:59:52.330Z,14.95
2022-09-22T19:02:23.032Z,14.58
2022-09-22T19:04:53.653Z,14.81
2022-09-22T19:07:42.428Z,15.25
2022-09-22T19:10:23.324Z,15.19
2022-09-22T19:12:53.849Z,14.53
2022-09-22T19:15:21.107Z,15.09
2022-09-22T19:17:50.915Z,15.22
2022-09-22T19:20:23.314Z,13.93
2022-09-22T19:22:52.249Z,14.42
2022-09-22T19:25:21.639Z,13.86
2022-09-22T19:27:50.303Z,13.95
2022-09-22T19:30:21.886Z,14.11
2022-09-22T19:32:50.539Z,14.39
2022-09-22T19:35:17.723Z,14.53
2022-09-22T19:37:44.963Z,14.56
2022-09-22T19:40:18.573Z,14.83
2022-09-22T19:42:47.122Z,14.49
2022-09-22T19:45:14.537Z,14.56
2022-09-22T19:47:41.703Z,14.38
2022-09-22T19:50:09.008Z,14.22
2022-09-22T19:52:37.651Z,13.69
2022-09-22T19:55:06.870Z,13.39
2022-09-22T19:57:36.213Z,13.94
2022-09-22T20:00:04.294Z,13.55
2022-09-22T20:02:38.763Z,13.76
2022-09-22T20:05:17.358Z,13.74
2022-09-22T20:07:44.490Z,13.97
2022-09-22T20:10:13.172Z,13.37
2022-09-22T20:12:40.815Z,13.60
2022-09-22T20:15:08.152Z,13.70
2022-09-22T20:17:35.309Z,13.57
2022-09-22T20:20:06.135Z,13.47
2022-09-22T20:22:34.064Z,13.69
2022-09-22T20:25:01.342Z,13.63
2022-09-22T20:27:31.244Z,13.68
2022-09-22T20:29:58.908Z,13.23
2022-09-22T20:32:28.379Z,12.72
2022-09-22T20:34:55.861Z,12.88
2022-09-22T20:37:24.378Z,13.31
2022-09-22T20:39:52.004Z,13.18
2022-09-22T20:42:19.132Z,13.29
2022-09-22T20:44:46.823Z,13.46
2022-09-22T20:47:18.899Z,12.77
2022-09-22T20:49:50.845Z,12.93
2022-09-22T20:52:20.490Z,12.87
2022-09-22T20:54:48.381Z,12.87
2022-09-22T20:57:16.017Z,12.74
2022-09-22T20:59:46.159Z,11.94
2022-09-22T21:02:14.901Z,12.17
2022-09-22T21:04:42.376Z,12.67
2022-09-22T21:07:11.275Z,12.75
2022-09-22T21:09:57.007Z,12.53
2022-09-22T21:12:30.701Z,12.44
2022-09-22T21:14:59.060Z,12.55
2022-09-22T21:17:27.736Z,12.48
2022-09-22T21:19:57.062Z,12.42
2022-09-22T21:22:25.223Z,12.21
2022-09-22T21:24:52.524Z,12.00
2022-09-22T21:27:19.935Z,12.24
2022-09-22T21:29:47.053Z,12.06
2022-09-22T21:32:14.103Z,12.27
2022-09-22T21:34:42.812Z,12.25
2022-09-22T21:37:09.940Z,12.32
2022-09-22T21:39:37.015Z,12.06
2022-09-22T21:42:04.099Z,12.09
2022-09-22T21:44:31.218Z,11.69
2022-09-22T21:46:58.443Z,12.01
2022-09-22T21:49:25.622Z,12.14
2022-09-22T21:51:52.756Z,12.02
2022-09-22T21:54:19.847Z,11.81
2022-09-22T21:56:46.989Z,11.65
2022-09-22T21:59:14.207Z,11.37
2022-09-22T22:01:42.127Z,11.83
2022-09-22T22:04:10.194Z,11.73
2022-09-22T22:06:40.635Z,11.69
2022-09-22T22:09:14.627Z,11.77
2022-09-22T22:11:45.598Z,11.63
2022-09-22T22:14:13.034Z,11.58
2022-09-22T22:16:42.665Z,11.61
2022-09-22T22:19:17.081Z,11.61
2022-09-22T22:21:44.443Z,10.95
2022-09-22T22:24:33.446Z,10.89
2022-09-22T22:27:06.237Z,11.51
2022-09-22T22:29:38.611Z,11.36
2022-09-22T22:32:08.015Z,11.54
2022-09-22T22:34:35.333Z,11.61
2022-09-22T22:37:04.540Z,11.32
2022-09-22T22:39:32.464Z,11.49
2022-09-22T22:41:59.552Z,11.13
2022-09-22T22:44:26.603Z,11.10
2022-09-22T22:46:53.712Z,10.65
2022-09-22T22:49:20.985Z,11.22
2022-09-22T22:51:49.325Z,11.00
2022-09-22T22:54:16.439Z,10.99
2022-09-22T22:56:46.710Z,10.94
2022-09-22T22:59:16.137Z,11.10
2022-09-22T23:01:44.231Z,11.21
2022-09-22T23:04:12.135Z,11.03
2022-09-22T23:06:44.352Z,10.35
2022-09-22T23:09:14.811Z,10.92
2022-09-22T23:11:43.438Z,11.04
2022-09-22T23:14:12.015Z,11.15
2022-09-22T23:16:43.215Z,10.85
2022-09-22T23:19:13.869Z,10.72
2022-09-22T23:21:41.501Z,10.33
2022-09-22T23:24:09.277Z,10.77
2022-09-22T23:26:37.390Z,10.95
2022-09-22T23:29:04.939Z,10.98
2022-09-22T23:31:32.489Z,10.95
2022-09-22T23:33:59.811Z,10.95
2022-09-22T23:36:28.734Z,11.10
2022-09-22T23:39:04.355Z,11.08
2022-09-22T23:41:36.406Z,11.00
2022-09-22T23:44:06.483Z,11.01
2022-09-22T23:46:34.430Z,10.83
2022-09-22T23:49:02.190Z,10.84
2022-09-22T23:51:29.554Z,10.72
2022-09-22T23:53:57.165Z,11.08
2022-09-22T23:56:24.756Z,10.85
2022-09-22T23:58:52.296Z,11.02
